Time;durP1;ratioP1;P1;durP2;ratioP2;P2;SDS_P1;SDS_P2;PMS_P1;PMS_P2;Temp;Humidity;BMP_temperature;BMP_pressure;BME280_temperature;BME280_humidity;BME280_pressure;Samples;Min_cycle;Max_cycle;Signal;HPM_P1;HPM_P2
2022/10/22 00:00:39;;;;;;;6.43;2.20;;;15.80;99.90;;;;;;5113169;28;20203;-82
2022/10/22 00:03:07;;;;;;;11.93;2.63;;;15.70;99.90;;;;;;5107459;28;20209;-79
2022/10/22 00:05:34;;;;;;;8.13;2.73;;;15.70;99.90;;;;;;5103347;28;20199;-84
2022/10/22 00:08:01;;;;;;;7.20;2.50;;;15.70;99.90;;;;;;5108350;28;20564;-82
2022/10/22 00:10:29;;;;;;;4.33;1.90;;;15.70;99.90;;;;;;5104238;28;20213;-82
2022/10/22 00:12:55;;;;;;;10.37;2.10;;;15.70;99.90;;;;;;5113279;28;20250;-79
2022/10/22 00:15:22;;;;;;;6.73;2.03;;;15.70;99.90;;;;;;5106823;28;20319;-79
2022/10/22 00:17:49;;;;;;;5.97;2.30;;;15.80;99.90;;;;;;5107999;28;20208;-79
2022/10/22 00:20:18;;;;;;;7.50;2.63;;;15.80;99.90;;;;;;5111128;28;20211;-80
2022/10/22 00:22:45;;;;;;;6.00;2.27;;;15.80;99.90;;;;;;5116839;28;20207;-78
2022/10/22 00:25:13;;;;;;;10.27;2.50;;;15.70;99.90;;;;;;5117098;28;20200;-79
2022/10/22 00:27:40;;;;;;;8.27;2.63;;;15.60;99.90;;;;;;5102164;27;20203;-80
2022/10/22 00:30:08;;;;;;;9.17;2.67;;;15.60;99.90;;;;;;5116758;28;20204;-79
2022/10/22 00:32:34;;;;;;;7.57;2.50;;;15.60;99.90;;;;;;5116567;28;20244;-79
2022/10/22 00:35:01;;;;;;;12.00;2.27;;;15.60;99.90;;;;;;5116508;27;20230;-79
2022/10/22 00:37:30;;;;;;;12.97;2.97;;;15.60;99.90;;;;;;5116843;28;20210;-83
2022/10/22 00:39:57;;;;;;;6.30;2.30;;;15.60;99.90;;;;;;5116398;28;20590;-79
2022/10/22 00:42:26;;;;;;;4.37;2.07;;;15.70;99.90;;;;;;5116614;28;20206;-77
2022/10/22 00:45:15;;;;;;;10.50;2.50;;;15.70;99.90;;;;;;5102627;28;20212;-77
2022/10/22 00:47:47;;;;;;;8.30;2.17;;;15.60;99.90;;;;;;5106665;28;20199;-79
2022/10/22 00:50:17;;;;;;;6.90;2.07;;;15.70;99.90;;;;;;5116199;28;20197;-78
2022/10/22 00:52:46;;;;;;;8.70;2.73;;;15.70;99.90;;;;;;5116541;27;20210;-78
2022/10/22 00:55:14;;;;;;;8.67;2.77;;;15.60;99.90;;;;;;5116199;28;20242;-84
2022/10/22 00:57:41;;;;;;;7.10;2.43;;;15.60;99.90;;;;;;5116149;28;20305;-77
2022/10/22 01:00:10;;;;;;;6.27;2.10;;;15.60;99.90;;;;;;5116428;28;20207;-80
2022/10/22 01:02:38;;;;;;;7.03;2.30;;;15.60;99.90;;;;;;5115873;28;20196;-81
2022/10/22 01:05:05;;;;;;;4.23;2.10;;;15.50;99.90;;;;;;5115875;28;20269;-79
2022/10/22 01:07:39;;;;;;;13.13;3.03;;;15.50;99.90;;;;;;5115859;28;20699;-80
2022/10/22 01:10:15;;;;;;;4.83;2.00;;;15.50;99.90;;;;;;5115636;28;20206;-81
2022/10/22 01:12:48;;;;;;;11.23;2.77;;;15.60;99.90;;;;;;5115800;28;20205;-80
2022/10/22 01:15:22;;;;;;;8.07;2.20;;;15.60;99.90;;;;;;5115225;28;20687;-80
2022/10/22 01:17:57;;;;;;;8.10;2.20;;;15.60;99.90;;;;;;5115459;28;20207;-78
2022/10/22 01:20:53;;;;;;;8.23;2.73;;;15.50;99.90;;;;;;5114200;28;20199;-79
2022/10/22 01:24:08;;;;;;;7.47;2.33;;;15.50;99.90;;;;;;5115173;28;20671;-78
2022/10/22 01:26:48;;;;;;;6.27;2.40;;;15.60;99.90;;;;;;5115886;28;20211;-80
2022/10/22 01:29:20;;;;;;;5.50;2.70;;;15.50;99.90;;;;;;5115885;28;20203;-78
2022/10/22 01:31:54;;;;;;;7.37;2.40;;;15.50;99.90;;;;;;5115282;28;20210;-79
2022/10/22 01:34:23;;;;;;;7.33;2.53;;;15.50;99.90;;;;;;5115313;28;20713;-79
2022/10/22 01:36:52;;;;;;;10.10;2.17;;;15.50;99.90;;;;;;5115474;27;20211;-82
2022/10/22 01:39:22;;;;;;;13.70;2.40;;;15.50;99.90;;;;;;5115176;28;20215;-81
2022/10/22 01:41:49;;;;;;;7.70;2.77;;;15.50;99.90;;;;;;5115192;28;20684;-80
2022/10/22 01:44:31;;;;;;;10.90;2.80;;;15.60;99.90;;;;;;5115489;28;20203;-79
2022/10/22 01:47:12;;;;;;;6.03;2.50;;;15.60;99.90;;;;;;5115327;28;20199;-79
2022/10/22 01:50:14;;;;;;;11.30;2.07;;;15.60;99.90;;;;;;5114800;28;20202;-79
2022/10/22 01:53:02;;;;;;;10.33;2.90;;;15.40;99.90;;;;;;5078288;28;20199;-77
2022/10/22 01:55:36;;;;;;;9.80;2.50;;;15.40;99.90;;;;;;5115055;28;20261;-77
2022/10/22 01:58:14;;;;;;;7.73;2.33;;;15.30;99.90;;;;;;5114807;28;20603;-78
2022/10/22 02:00:50;;;;;;;9.20;2.97;;;15.30;99.90;;;;;;5114433;28;20202;-78
2022/10/22 02:03:24;;;;;;;10.43;2.70;;;15.30;99.90;;;;;;5115096;28;20225;-82
2022/10/22 02:05:55;;;;;;;6.20;2.17;;;15.40;99.90;;;;;;5114928;28;20203;-77
2022/10/22 02:08:27;;;;;;;7.07;2.37;;;15.30;99.90;;;;;;5114562;28;20218;-76
2022/10/22 02:10:55;;;;;;;6.70;2.60;;;15.30;99.90;;;;;;5114514;27;20203;-77
2022/10/22 02:13:26;;;;;;;11.77;2.43;;;15.40;99.90;;;;;;5100410;28;20281;-79
2022/10/22 02:15:55;;;;;;;7.87;2.47;;;15.30;99.90;;;;;;5114448;28;20219;-78
2022/10/22 02:18:26;;;;;;;9.43;2.20;;;15.10;99.90;;;;;;5100091;28;20202;-78
2022/10/22 02:20:55;;;;;;;7.93;2.40;;;15.20;99.90;;;;;;5114596;28;20206;-77
2022/10/22 02:23:22;;;;;;;5.57;2.40;;;15.10;99.90;;;;;;5114336;28;20202;-78
2022/10/22 02:25:55;;;;;;;7.30;2.80;;;15.10;99.90;;;;;;5114219;28;20205;-77
2022/10/22 02:28:27;;;;;;;7.20;2.40;;;15.10;99.90;;;;;;5114652;28;20206;-76
2022/10/22 02:31:06;;;;;;;6.40;2.43;;;15.10;99.90;;;;;;5113490;28;20215;-79
2022/10/22 02:33:37;;;;;;;12.47;2.50;;;15.20;99.90;;;;;;5114037;28;20672;-76
2022/10/22 02:36:06;;;;;;;11.23;2.50;;;15.20;99.90;;;;;;5114167;28;20206;-77
2022/10/22 02:38:36;;;;;;;5.67;2.63;;;15.10;99.90;;;;;;5114205;28;20696;-77
2022/10/22 02:41:03;;;;;;;7.67;2.73;;;15.10;99.90;;;;;;5114127;28;20216;-79
2022/10/22 02:43:31;;;;;;;12.03;3.23;;;15.10;99.90;;;;;;5114640;28;20232;-81
2022/10/22 02:46:00;;;;;;;11.60;2.80;;;15.20;99.90;;;;;;5114123;28;20213;-78
2022/10/22 02:48:27;;;;;;;6.60;2.50;;;15.20;99.90;;;;;;5114059;28;20630;-78
2022/10/22 02:50:54;;;;;;;9.30;2.67;;;15.20;99.90;;;;;;5114028;28;20556;-79
2022/10/22 02:53:20;;;;;;;8.93;2.27;;;15.20;99.90;;;;;;5104435;28;20207;-79
2022/10/22 02:55:47;;;;;;;7.73;2.50;;;15.20;99.90;;;;;;5109552;28;20252;-78
2022/10/22 02:58:14;;;;;;;10.70;2.97;;;15.20;99.90;;;;;;5113376;28;20451;-80
2022/10/22 03:00:41;;;;;;;8.23;2.77;;;15.20;99.90;;;;;;5108596;28;20207;-82
2022/10/22 03:03:09;;;;;;;11.07;2.57;;;15.20;99.90;;;;;;5107113;28;20241;-83
2022/10/22 03:05:37;;;;;;;7.83;2.17;;;15.20;99.90;;;;;;5112172;28;20552;-80
2022/10/22 03:08:05;;;;;;;7.03;2.53;;;15.20;99.90;;;;;;5099202;28;20595;-81
2022/10/22 03:10:31;;;;;;;7.43;2.77;;;15.20;99.90;;;;;;5110136;28;20199;-79
2022/10/22 03:12:58;;;;;;;9.40;2.53;;;15.00;99.90;;;;;;5101515;28;20207;-78
2022/10/22 03:15:25;;;;;;;6.27;2.33;;;15.00;99.90;;;;;;5113553;28;20228;-81
2022/10/22 03:17:52;;;;;;;5.20;2.97;;;15.00;99.90;;;;;;5113351;28;20209;-80
2022/10/22 03:20:20;;;;;;;8.07;2.20;;;14.90;99.90;;;;;;5099332;28;20215;-78
2022/10/22 03:22:49;;;;;;;7.17;2.30;;;15.00;99.90;;;;;;5113268;28;20199;-80
2022/10/22 03:25:19;;;;;;;9.93;2.60;;;15.10;99.90;;;;;;5113281;28;20204;-78
2022/10/22 03:27:47;;;;;;;6.37;2.07;;;15.00;99.90;;;;;;5112743;28;20205;-78
2022/10/22 03:30:14;;;;;;;9.23;2.50;;;15.10;99.90;;;;;;5113573;28;20207;-79
2022/10/22 03:32:41;;;;;;;6.20;2.10;;;15.10;99.90;;;;;;5113322;28;20214;-78
2022/10/22 03:35:08;;;;;;;6.50;2.37;;;15.10;99.90;;;;;;5113220;28;20316;-78
2022/10/22 03:37:37;;;;;;;8.67;2.70;;;15.00;99.90;;;;;;5098860;28;20193;-77
2022/10/22 03:40:06;;;;;;;7.20;2.10;;;15.00;99.90;;;;;;5113314;28;20213;-78
2022/10/22 03:42:33;;;;;;;7.87;2.00;;;14.90;99.90;;;;;;5111133;28;20204;-78
2022/10/22 03:45:00;;;;;;;5.33;2.37;;;15.00;99.90;;;;;;5104651;28;20252;-78
2022/10/22 03:47:28;;;;;;;7.20;2.40;;;15.00;99.90;;;;;;5111026;28;20575;-78
2022/10/22 03:49:54;;;;;;;15.23;2.80;;;15.00;99.90;;;;;;5113352;28;20210;-77
2022/10/22 03:52:21;;;;;;;9.57;2.53;;;15.00;99.90;;;;;;5113001;28;20434;-79
2022/10/22 03:54:51;;;;;;;9.90;2.93;;;15.00;99.90;;;;;;5099284;28;20228;-80
2022/10/22 03:57:20;;;;;;;8.27;3.00;;;15.10;99.90;;;;;;5112543;28;20204;-78
2022/10/22 03:59:47;;;;;;;10.53;2.50;;;15.00;99.90;;;;;;5109439;28;20201;-79
2022/10/22 04:02:14;;;;;;;6.10;2.10;;;15.00;99.90;;;;;;5106039;28;20203;-78
2022/10/22 04:04:40;;;;;;;6.43;2.83;;;15.10;99.90;;;;;;5104950;28;20206;-78
2022/10/22 04:07:08;;;;;;;8.17;2.40;;;15.00;99.90;;;;;;5103856;28;20568;-79
2022/10/22 04:09:36;;;;;;;6.57;1.73;;;15.10;99.90;;;;;;5109513;28;20213;-78
2022/10/22 04:12:06;;;;;;;4.83;1.93;;;15.20;99.90;;;;;;5103984;28;20206;-78
2022/10/22 04:14:34;;;;;;;6.23;2.00;;;15.20;99.90;;;;;;5107462;28;20265;-78
2022/10/22 04:17:00;;;;;;;6.50;2.23;;;15.10;99.90;;;;;;5098503;28;20203;-77
2022/10/22 04:19:27;;;;;;;9.53;2.20;;;15.00;99.90;;;;;;5112961;28;20675;-79
2022/10/22 04:21:54;;;;;;;6.67;1.90;;;15.00;99.90;;;;;;5112731;28;20212;-77
2022/10/22 04:24:22;;;;;;;7.90;2.17;;;15.00;99.90;;;;;;5112734;28;20615;-79
2022/10/22 04:26:49;;;;;;;7.90;2.27;;;14.90;99.90;;;;;;5113218;28;20209;-79
2022/10/22 04:29:18;;;;;;;8.60;2.27;;;15.00;99.90;;;;;;5113465;28;20205;-79
2022/10/22 04:31:45;;;;;;;6.47;1.90;;;15.00;99.90;;;;;;5113584;28;20193;-77
2022/10/22 04:34:11;;;;;;;10.63;2.78;;;15.00;99.90;;;;;;5111558;28;20788;-79
2022/10/22 04:36:38;;;;;;;9.37;2.50;;;15.00;99.90;;;;;;5113024;28;20201;-79
2022/10/22 04:39:06;;;;;;;7.80;2.60;;;15.00;99.90;;;;;;5112738;28;20203;-78
2022/10/22 04:41:35;;;;;;;9.30;2.20;;;15.00;99.90;;;;;;5112729;28;20202;-78
2022/10/22 04:44:02;;;;;;;4.87;2.20;;;15.00;99.90;;;;;;5112441;28;20201;-78
2022/10/22 04:46:33;;;;;;;6.33;1.97;;;14.90;99.90;;;;;;5112681;28;20225;-78
2022/10/22 04:49:02;;;;;;;9.10;2.50;;;14.90;99.90;;;;;;5112918;28;20572;-79
2022/10/22 04:51:29;;;;;;;12.00;2.43;;;14.80;99.90;;;;;;5112833;28;20201;-78
2022/10/22 04:53:56;;;;;;;9.87;2.47;;;14.80;99.90;;;;;;5113313;28;20201;-80
2022/10/22 04:56:24;;;;;;;5.90;1.93;;;14.80;99.90;;;;;;5116090;28;20224;-77
2022/10/22 04:58:54;;;;;;;9.23;2.10;;;14.80;99.90;;;;;;5115931;28;20196;-78
2022/10/22 05:01:23;;;;;;;6.73;2.03;;;14.70;99.90;;;;;;5116454;28;20561;-77
2022/10/22 05:03:53;;;;;;;4.97;2.27;;;14.70;99.90;;;;;;5115936;28;20203;-80
2022/10/22 05:06:20;;;;;;;5.90;2.17;;;14.70;99.90;;;;;;5116574;28;20219;-78
2022/10/22 05:08:47;;;;;;;8.73;2.00;;;14.80;99.90;;;;;;5115854;28;20229;-79
2022/10/22 05:11:17;;;;;;;8.10;2.00;;;14.80;99.90;;;;;;5115665;28;20202;-79
2022/10/22 05:13:44;;;;;;;7.87;2.03;;;14.90;99.90;;;;;;5115452;28;20231;-79
2022/10/22 05:16:11;;;;;;;8.30;2.50;;;14.80;99.90;;;;;;5108611;28;20236;-78
2022/10/22 05:18:39;;;;;;;9.43;2.70;;;14.90;99.90;;;;;;5114071;28;20197;-81
2022/10/22 05:21:09;;;;;;;8.13;2.30;;;14.90;99.90;;;;;;5115447;27;20221;-82
2022/10/22 05:23:36;;;;;;;8.60;2.20;;;14.90;99.90;;;;;;5115483;28;20197;-81
2022/10/22 05:26:03;;;;;;;11.77;2.60;;;14.90;99.90;;;;;;5115763;28;20201;-83
2022/10/22 05:28:30;;;;;;;9.70;2.50;;;14.80;99.90;;;;;;5115554;28;20201;-78
2022/10/22 05:30:59;;;;;;;5.37;1.80;;;14.80;99.90;;;;;;5115293;28;20209;-82
2022/10/22 05:33:26;;;;;;;7.87;2.13;;;14.70;99.90;;;;;;5115716;28;20200;-78
2022/10/22 05:35:53;;;;;;;8.90;2.30;;;14.70;99.90;;;;;;5115570;28;20230;-80
2022/10/22 05:38:21;;;;;;;9.53;2.10;;;14.60;99.90;;;;;;5112394;28;20212;-78
2022/10/22 05:40:48;;;;;;;8.60;2.50;;;14.70;99.90;;;;;;5114145;28;20187;-78
2022/10/22 05:43:15;;;;;;;8.50;2.40;;;14.70;99.90;;;;;;5112093;28;20197;-78
2022/10/22 05:45:43;;;;;;;7.00;2.20;;;14.70;99.90;;;;;;5109098;28;20212;-79
2022/10/22 05:48:10;;;;;;;8.20;2.00;;;14.80;99.90;;;;;;5114008;28;20205;-78
2022/10/22 05:50:37;;;;;;;7.27;2.30;;;14.80;99.90;;;;;;5100955;28;20224;-84
2022/10/22 05:53:05;;;;;;;11.83;2.30;;;14.90;99.90;;;;;;5114522;28;20205;-84
2022/10/22 05:55:37;;;;;;;11.13;2.40;;;14.90;99.90;;;;;;5101968;28;20223;-78
2022/10/22 05:58:04;;;;;;;5.87;2.10;;;14.90;99.90;;;;;;5114941;27;20648;-78
2022/10/22 06:00:33;;;;;;;9.47;2.07;;;15.00;99.90;;;;;;5115312;28;20205;-79
2022/10/22 06:03:00;;;;;;;7.10;2.03;;;15.00;99.90;;;;;;5115273;28;20206;-79
2022/10/22 06:05:26;;;;;;;9.90;2.00;;;15.00;99.90;;;;;;5114705;28;20195;-82
2022/10/22 06:07:54;;;;;;;9.73;2.30;;;15.10;99.90;;;;;;5113996;28;20432;-78
2022/10/22 06:10:21;;;;;;;10.23;2.20;;;15.20;99.90;;;;;;5114446;28;20725;-79
2022/10/22 06:12:50;;;;;;;9.10;2.17;;;15.20;99.90;;;;;;5114592;28;20208;-77
2022/10/22 06:15:19;;;;;;;8.10;2.40;;;15.30;99.90;;;;;;5114695;28;20705;-82
2022/10/22 06:17:45;;;;;;;7.50;2.47;;;15.30;99.90;;;;;;5114894;28;20199;-84
2022/10/22 06:20:14;;;;;;;9.90;1.90;;;15.30;99.90;;;;;;5115065;28;20206;-84
2022/10/22 06:22:43;;;;;;;6.17;2.27;;;15.30;99.90;;;;;;5115031;28;20203;-86
2022/10/22 06:25:11;;;;;;;8.20;2.57;;;15.30;99.90;;;;;;5115281;28;20207;-84
2022/10/22 06:27:41;;;;;;;14.43;2.60;;;15.40;99.90;;;;;;5114744;28;20250;-82
2022/10/22 06:30:10;;;;;;;5.90;2.00;;;15.40;99.90;;;;;;5115194;28;20205;-83
2022/10/22 06:32:38;;;;;;;13.60;2.13;;;15.50;99.90;;;;;;5114781;28;20205;-85
2022/10/22 06:35:06;;;;;;;6.93;1.90;;;15.40;99.90;;;;;;5105599;28;20239;-84
2022/10/22 06:37:32;;;;;;;5.03;1.70;;;15.40;99.90;;;;;;5093435;28;20117;-83
2022/10/22 06:40:01;;;;;;;5.03;1.83;;;15.40;99.90;;;;;;5099306;28;20207;-81
2022/10/22 06:42:29;;;;;;;7.53;2.10;;;15.50;99.90;;;;;;5104980;28;20203;-83
2022/10/22 06:44:57;;;;;;;5.00;2.03;;;15.60;99.90;;;;;;5102257;28;20197;-82
2022/10/22 06:47:32;;;;;;;10.00;2.33;;;15.50;99.90;;;;;;5096359;28;20204;-82
2022/10/22 06:49:59;;;;;;;7.87;2.10;;;15.50;99.90;;;;;;5092972;28;20567;-82
2022/10/22 06:52:27;;;;;;;7.27;1.90;;;15.60;99.90;;;;;;5095548;28;20211;-84
2022/10/22 06:54:55;;;;;;;9.23;2.00;;;15.50;99.90;;;;;;5096466;28;20570;-82
2022/10/22 06:57:24;;;;;;;10.60;2.60;;;15.50;99.90;;;;;;5104285;28;20674;-85
2022/10/22 06:59:52;;;;;;;6.30;2.00;;;15.50;99.90;;;;;;5114883;28;20789;-85
2022/10/22 07:02:21;;;;;;;12.03;2.43;;;15.40;99.90;;;;;;5099925;28;20203;-84
2022/10/22 07:04:51;;;;;;;10.53;2.00;;;15.40;99.90;;;;;;5107762;28;20207;-85
2022/10/22 07:07:18;;;;;;;5.27;2.13;;;15.40;99.90;;;;;;5098611;28;20210;-85
2022/10/22 07:09:48;;;;;;;6.77;1.90;;;15.40;99.90;;;;;;5114660;28;20210;-86
2022/10/22 07:12:17;;;;;;;6.33;1.90;;;15.40;99.90;;;;;;5114455;28;20199;-85
2022/10/22 07:14:44;;;;;;;10.60;2.00;;;15.30;99.90;;;;;;5112043;28;20230;-85
2022/10/22 07:17:12;;;;;;;7.77;2.50;;;15.30;99.90;;;;;;5093363;28;20253;-84
2022/10/22 07:19:38;;;;;;;6.63;2.30;;;15.30;99.90;;;;;;5102926;28;20567;-77
2022/10/22 07:22:06;;;;;;;6.20;2.20;;;15.40;99.90;;;;;;5113880;28;20244;-82
2022/10/22 07:24:33;;;;;;;10.87;1.90;;;15.40;99.90;;;;;;5113510;28;20210;-77
2022/10/22 07:27:00;;;;;;;5.47;2.10;;;15.40;99.90;;;;;;5113409;28;20215;-77
2022/10/22 07:29:27;;;;;;;4.30;1.73;;;15.50;99.90;;;;;;5113216;27;20208;-78
2022/10/22 07:31:54;;;;;;;8.53;2.60;;;15.50;99.90;;;;;;5113399;28;20206;-78
2022/10/22 07:34:21;;;;;;;7.23;2.27;;;15.50;99.90;;;;;;5113145;28;20202;-80
2022/10/22 07:36:47;;;;;;;11.33;2.40;;;15.50;99.90;;;;;;5113763;28;20219;-79
2022/10/22 07:39:15;;;;;;;7.17;2.17;;;15.50;99.90;;;;;;5112920;28;20200;-78
2022/10/22 07:41:45;;;;;;;7.77;2.10;;;15.50;99.90;;;;;;5113426;28;20199;-79
2022/10/22 07:44:12;;;;;;;6.30;1.77;;;15.50;99.90;;;;;;5113325;28;20225;-79
2022/10/22 07:46:39;;;;;;;7.53;2.07;;;15.50;99.90;;;;;;5113699;28;20608;-80
2022/10/22 07:49:06;;;;;;;8.27;2.20;;;15.60;99.90;;;;;;5100657;28;20205;-78
2022/10/22 07:51:32;;;;;;;8.10;2.10;;;15.80;99.90;;;;;;5111604;28;20204;-79
2022/10/22 07:53:59;;;;;;;11.43;2.23;;;15.80;99.90;;;;;;5114119;28;20207;-80
2022/10/22 07:56:28;;;;;;;9.53;2.13;;;15.80;99.90;;;;;;5113582;28;20231;-81
2022/10/22 07:58:55;;;;;;;9.30;2.17;;;15.80;99.90;;;;;;5113801;28;20197;-78
2022/10/22 08:01:22;;;;;;;5.90;1.80;;;15.70;99.90;;;;;;5110855;28;20224;-79
2022/10/22 08:03:49;;;;;;;7.53;2.30;;;15.80;99.90;;;;;;5095052;28;20197;-87
2022/10/22 08:06:16;;;;;;;8.37;2.10;;;15.70;99.90;;;;;;5096436;28;20193;-86
2022/10/22 08:08:44;;;;;;;7.70;1.80;;;15.70;99.90;;;;;;5092971;28;20240;-81
2022/10/22 08:11:11;;;;;;;6.13;2.17;;;15.80;99.90;;;;;;5110846;28;20250;-79
2022/10/22 08:13:39;;;;;;;10.10;2.53;;;15.90;99.90;;;;;;5113206;28;20588;-85
2022/10/22 08:16:07;;;;;;;5.30;1.80;;;16.10;99.90;;;;;;5113672;28;20565;-87
2022/10/22 08:18:34;;;;;;;7.60;2.00;;;16.20;99.90;;;;;;5111609;28;20204;-84
2022/10/22 08:21:01;;;;;;;9.03;1.90;;;16.40;99.90;;;;;;5096392;28;20676;-87
2022/10/22 08:23:28;;;;;;;16.20;2.67;;;16.40;99.90;;;;;;5106938;28;20201;-80
2022/10/22 08:25:55;;;;;;;7.27;2.17;;;16.40;99.90;;;;;;5113304;28;20216;-87
2022/10/22 08:28:23;;;;;;;7.93;2.00;;;16.30;99.90;;;;;;5113129;28;20233;-84
2022/10/22 08:30:51;;;;;;;10.30;2.23;;;16.30;99.90;;;;;;5117322;28;20208;-87
2022/10/22 08:33:18;;;;;;;7.30;2.10;;;16.30;99.90;;;;;;5117355;28;20208;-86
2022/10/22 08:35:48;;;;;;;8.67;2.40;;;16.30;99.90;;;;;;5117674;28;20228;-85
2022/10/22 08:38:15;;;;;;;5.27;1.73;;;16.20;99.90;;;;;;5117834;28;20207;-85
2022/10/22 08:40:47;;;;;;;7.23;2.03;;;16.20;99.90;;;;;;5106276;28;20208;-85
2022/10/22 08:43:35;;;;;;;6.23;2.00;;;16.20;99.90;;;;;;5117851;27;20212;-87
2022/10/22 09:05:39;;;;;;;9.03;2.00;;;16.00;99.90;;;;;;5163561;27;20577;-93
2022/10/22 09:08:11;;;;;;;12.83;2.33;;;16.10;99.90;;;;;;5126906;28;20207;-92
2022/10/22 09:10:42;;;;;;;10.13;2.13;;;16.20;99.90;;;;;;5130664;28;20192;-88
2022/10/22 09:13:10;;;;;;;8.07;2.13;;;16.40;99.90;;;;;;5129450;28;20625;-89
2022/10/22 09:15:38;;;;;;;7.03;1.97;;;16.50;99.90;;;;;;5122013;28;20197;-89
2022/10/22 09:18:19;;;;;;;7.50;2.53;;;16.60;99.90;;;;;;5108450;28;20208;-90
2022/10/22 09:20:53;;;;;;;10.77;2.20;;;16.80;99.90;;;;;;5106371;28;20213;-89
2022/10/22 09:23:32;;;;;;;7.77;2.03;;;16.90;99.90;;;;;;5113200;28;20304;-92
2022/10/22 09:26:00;;;;;;;6.10;2.30;;;16.90;99.90;;;;;;5112569;28;20205;-92
2022/10/22 09:28:27;;;;;;;8.87;2.20;;;16.80;99.90;;;;;;5113558;28;20254;-90
2022/10/22 09:30:54;;;;;;;6.33;1.97;;;16.80;99.90;;;;;;5112758;28;20206;-90
2022/10/22 09:33:24;;;;;;;7.03;2.10;;;16.80;99.90;;;;;;5111490;28;20205;-86
2022/10/22 09:36:02;;;;;;;7.33;2.23;;;16.70;99.90;;;;;;5111000;28;20259;-88
2022/10/22 09:38:32;;;;;;;11.23;2.43;;;16.80;99.90;;;;;;5096779;28;20289;-90
2022/10/22 09:41:21;;;;;;;11.53;2.27;;;16.70;99.90;;;;;;5099401;28;20212;-90
2022/10/22 09:43:49;;;;;;;12.07;2.47;;;16.90;99.90;;;;;;5100536;28;20217;-88
2022/10/22 09:46:18;;;;;;;6.47;2.03;;;16.90;99.90;;;;;;5099548;28;20218;-92
2022/10/22 09:48:50;;;;;;;5.70;2.40;;;17.00;99.90;;;;;;5111113;28;20206;-86
2022/10/22 09:51:22;;;;;;;7.67;1.93;;;17.00;99.90;;;;;;5110145;28;20685;-84
2022/10/22 09:53:56;;;;;;;7.80;1.93;;;17.10;99.90;;;;;;5099592;28;20546;-85
2022/10/22 09:56:27;;;;;;;10.10;2.00;;;17.20;99.90;;;;;;5110156;28;20197;-84
2022/10/22 09:58:56;;;;;;;6.80;1.83;;;17.30;99.90;;;;;;5109819;28;20535;-84
2022/10/22 10:01:26;;;;;;;6.20;2.40;;;17.20;99.90;;;;;;5109804;28;20671;-85
2022/10/22 10:03:53;;;;;;;10.30;2.40;;;17.20;99.90;;;;;;5109772;28;20255;-85
2022/10/22 10:06:23;;;;;;;12.00;3.00;;;17.20;99.90;;;;;;5110086;28;20206;-85
2022/10/22 10:08:50;;;;;;;10.23;2.20;;;17.10;99.90;;;;;;5109916;28;20204;-84
2022/10/22 10:11:26;;;;;;;14.43;3.10;;;17.10;99.90;;;;;;5109915;28;20652;-85
2022/10/22 10:14:05;;;;;;;8.17;2.10;;;17.00;99.90;;;;;;5095494;28;20233;-84
2022/10/22 10:16:42;;;;;;;11.43;2.33;;;17.10;99.90;;;;;;5096588;28;20236;-84
2022/10/22 10:19:30;;;;;;;6.00;2.10;;;17.10;99.90;;;;;;5096075;28;20656;-84
2022/10/22 10:22:09;;;;;;;4.30;2.07;;;17.30;99.90;;;;;;5093375;28;20212;-84
2022/10/22 10:24:50;;;;;;;7.77;2.00;;;17.50;99.90;;;;;;5086147;28;20236;-83
2022/10/22 10:27:24;;;;;;;6.27;2.47;;;17.50;99.90;;;;;;5091337;28;20202;-84
2022/10/22 10:30:01;;;;;;;8.90;2.23;;;17.60;99.90;;;;;;5087410;28;20204;-83
2022/10/22 10:32:47;;;;;;;9.93;2.33;;;17.60;99.90;;;;;;5095857;28;20206;-84
2022/10/22 10:35:21;;;;;;;8.73;1.97;;;17.70;99.90;;;;;;5096079;28;20216;-84
2022/10/22 10:38:01;;;;;;;8.83;2.07;;;17.80;99.90;;;;;;5095797;28;20648;-84
2022/10/22 10:40:34;;;;;;;5.50;2.13;;;17.70;99.90;;;;;;5095832;28;20669;-85
2022/10/22 10:43:09;;;;;;;8.97;2.03;;;17.50;99.90;;;;;;5095185;28;20207;-84
2022/10/22 10:45:44;;;;;;;16.40;2.67;;;17.60;99.90;;;;;;5095948;28;20219;-84
2022/10/22 10:48:27;;;;;;;7.77;2.13;;;17.60;99.90;;;;;;5095594;28;20214;-85
2022/10/22 10:51:03;;;;;;;8.57;2.17;;;17.60;99.90;;;;;;5092643;28;20200;-85
2022/10/22 10:53:49;;;;;;;6.73;2.30;;;17.60;99.90;;;;;;5081868;28;20257;-85
2022/10/22 10:56:32;;;;;;;9.03;1.90;;;17.60;99.90;;;;;;5095260;28;20212;-84
2022/10/22 10:59:09;;;;;;;5.03;1.67;;;17.70;99.90;;;;;;5095072;28;20652;-84
2022/10/22 11:01:48;;;;;;;8.90;2.40;;;18.00;99.90;;;;;;5095379;28;20216;-84
2022/10/22 11:04:34;;;;;;;9.87;2.13;;;18.30;99.90;;;;;;5094836;28;20251;-84
2022/10/22 11:07:06;;;;;;;10.37;2.27;;;18.50;99.90;;;;;;5095012;28;20659;-84
2022/10/22 11:09:38;;;;;;;7.13;2.60;;;18.60;99.90;;;;;;5095550;28;20212;-83
2022/10/22 11:12:10;;;;;;;11.23;2.53;;;18.70;99.90;;;;;;5089371;28;20214;-84
2022/10/22 11:14:47;;;;;;;10.23;2.30;;;18.80;99.90;;;;;;5087522;28;20232;-84
2022/10/22 11:17:16;;;;;;;7.70;2.50;;;18.60;99.90;;;;;;5095117;28;20212;-84
2022/10/22 11:19:50;;;;;;;4.17;2.33;;;18.60;99.90;;;;;;5094839;28;20561;-84
2022/10/22 11:22:23;;;;;;;8.17;2.50;;;18.60;99.90;;;;;;5094928;28;20292;-84
2022/10/22 11:24:57;;;;;;;7.37;2.40;;;18.50;99.90;;;;;;5094692;28;20233;-84
2022/10/22 11:27:31;;;;;;;8.10;2.83;;;18.60;99.90;;;;;;5087915;28;20209;-84
2022/10/22 11:30:03;;;;;;;6.17;2.43;;;18.80;99.90;;;;;;5087325;28;20288;-82
2022/10/22 11:32:31;;;;;;;7.27;2.57;;;18.90;99.90;;;;;;5094879;28;20197;-85
2022/10/22 11:35:02;;;;;;;6.83;2.87;;;19.00;99.90;;;;;;5094573;28;20208;-84
2022/10/22 11:37:33;;;;;;;11.80;2.97;;;19.00;99.90;;;;;;5094982;28;20196;-84
2022/10/22 11:40:06;;;;;;;8.67;2.57;;;18.90;99.90;;;;;;5094374;28;20287;-84
2022/10/22 11:42:36;;;;;;;9.37;2.93;;;18.80;99.90;;;;;;5094375;28;20193;-84
2022/10/22 11:45:25;;;;;;;7.97;3.33;;;19.00;99.90;;;;;;5094448;28;20232;-84
2022/10/22 11:47:56;;;;;;;8.67;2.50;;;19.20;99.90;;;;;;5094450;28;20209;-84
2022/10/22 11:50:25;;;;;;;6.10;2.43;;;19.30;99.90;;;;;;5093892;28;20637;-84
2022/10/22 11:53:02;;;;;;;4.97;2.40;;;19.40;99.90;;;;;;5091633;28;20207;-83
2022/10/22 11:55:44;;;;;;;5.40;1.93;;;19.30;99.90;;;;;;5092546;28;20229;-84
2022/10/22 11:58:29;;;;;;;6.50;2.07;;;19.10;99.90;;;;;;5094330;28;20201;-84
2022/10/22 12:00:57;;;;;;;8.10;2.30;;;19.00;99.90;;;;;;5082081;28;20251;-83
2022/10/22 12:03:39;;;;;;;8.60;2.40;;;18.90;99.90;;;;;;5094220;28;20212;-84
2022/10/22 12:06:19;;;;;;;5.33;2.00;;;19.00;99.90;;;;;;5094612;28;20215;-84
2022/10/22 12:08:52;;;;;;;9.50;2.27;;;18.90;99.90;;;;;;5095577;28;20205;-83
2022/10/22 12:11:23;;;;;;;6.10;2.00;;;18.80;99.90;;;;;;5094398;28;20217;-84
2022/10/22 12:14:01;;;;;;;6.40;2.20;;;18.60;99.90;;;;;;5085246;28;20221;-82
2022/10/22 12:16:35;;;;;;;4.23;2.10;;;18.70;99.90;;;;;;5073436;28;20205;-85
2022/10/22 12:19:06;;;;;;;5.83;2.13;;;18.70;99.90;;;;;;5082569;28;20644;-83
2022/10/22 12:21:33;;;;;;;4.50;2.27;;;18.70;99.90;;;;;;5079718;28;20208;-83
2022/10/22 12:24:02;;;;;;;8.27;2.77;;;18.70;99.90;;;;;;5093467;28;20197;-85
2022/10/22 12:26:33;;;;;;;6.03;1.93;;;18.70;99.90;;;;;;5093906;28;20211;-85
2022/10/22 12:29:02;;;;;;;10.90;2.60;;;18.70;99.90;;;;;;5093570;28;20645;-84
2022/10/22 12:31:37;;;;;;;5.73;1.90;;;18.70;99.90;;;;;;5093847;28;20211;-86
2022/10/22 12:34:04;;;;;;;8.73;3.03;;;18.70;99.90;;;;;;5073629;28;20209;-85
2022/10/22 12:36:34;;;;;;;5.93;2.10;;;18.90;99.90;;;;;;5086244;28;20194;-83
2022/10/22 12:39:02;;;;;;;4.73;2.37;;;19.00;99.90;;;;;;5087484;28;20205;-83
2022/10/22 12:41:35;;;;;;;10.37;2.53;;;19.00;99.90;;;;;;5085156;28;20204;-85
2022/10/22 12:44:05;;;;;;;4.47;1.57;;;19.00;99.90;;;;;;5079148;28;20212;-84
2022/10/22 12:46:34;;;;;;;5.67;1.80;;;19.10;99.90;;;;;;5096231;28;20201;-84
2022/10/22 12:49:03;;;;;;;5.27;1.90;;;19.20;99.90;;;;;;5093277;28;20205;-84
2022/10/22 12:51:30;;;;;;;2.47;1.67;;;19.20;99.90;;;;;;5083472;28;20212;-84
2022/10/22 12:54:01;;;;;;;4.23;1.97;;;19.20;99.90;;;;;;5074790;28;20209;-84
2022/10/22 12:56:32;;;;;;;3.87;1.50;;;19.30;99.90;;;;;;5093373;28;20205;-84
2022/10/22 12:59:02;;;;;;;4.43;1.63;;;19.40;99.90;;;;;;5077205;28;20591;-85
2022/10/22 13:01:34;;;;;;;10.07;2.07;;;19.30;99.90;;;;;;5081861;28;20202;-84
2022/10/22 13:04:14;;;;;;;5.97;1.53;;;19.30;99.90;;;;;;5092766;28;20750;-84
2022/10/22 13:06:44;;;;;;;5.13;1.43;;;19.40;99.90;;;;;;5094097;28;20208;-84
2022/10/22 13:09:17;;;;;;;5.80;1.60;;;19.50;99.90;;;;;;5091167;28;20197;-83
2022/10/22 13:11:50;;;;;;;5.83;1.57;;;19.70;99.90;;;;;;5093243;28;20201;-83
2022/10/22 13:14:26;;;;;;;2.27;1.33;;;19.80;99.90;;;;;;5093209;28;20209;-86
2022/10/22 13:17:07;;;;;;;5.60;1.40;;;19.80;99.90;;;;;;5091930;28;20555;-80
2022/10/22 13:19:44;;;;;;;5.10;1.37;;;19.90;99.90;;;;;;5091311;28;20205;-82
2022/10/22 13:22:29;;;;;;;4.80;1.90;;;19.80;99.90;;;;;;5091130;28;20236;-81